Airport ICAO


14:33 UTC

16°C

Broken clouds


An affordable passengers' Moving Map for your aircraft. Made for the iPad and the iPhone
More information here

LIMG Albenga


Albenga ITALY   VFR


METAR LIMG 241350Z VRB03KT 9999 BKN035 16/09 Q1020 0h43min





NOTAMS

OPEN